Time;durP1;ratioP1;P1;durP2;ratioP2;P2;SDS_P1;SDS_P2;PMS_P1;PMS_P2;Temp;Humidity;BMP_temperature;BMP_pressure;BME280_temperature;BME280_humidity;BME280_pressure;Samples;Min_cycle;Max_cycle;Signal;HPM_P1;HPM_P2
2022/08/24 00:00:19;;;;;;;9.77;6.35;;;21.40;99.90;;;;;;5062069;28;20340;-38
2022/08/24 00:02:45;;;;;;;7.50;6.00;;;21.40;99.90;;;;;;5064377;28;20737;-40
2022/08/24 00:05:11;;;;;;;13.35;7.25;;;21.30;99.90;;;;;;5062865;28;20408;-40
2022/08/24 00:07:37;;;;;;;8.63;6.88;;;21.40;99.90;;;;;;5065629;28;20139;-41
2022/08/24 00:10:05;;;;;;;9.38;6.40;;;21.30;99.90;;;;;;5062743;28;20505;-39
2022/08/24 00:12:31;;;;;;;10.52;7.03;;;21.30;99.90;;;;;;5062905;28;20033;-39
2022/08/24 00:14:58;;;;;;;12.43;8.02;;;21.30;99.90;;;;;;5062986;28;20033;-39
2022/08/24 00:17:24;;;;;;;10.37;6.87;;;21.30;99.90;;;;;;5062198;28;20288;-40
2022/08/24 00:19:50;;;;;;;11.02;7.38;;;21.30;99.90;;;;;;5063819;28;20488;-38
2022/08/24 00:22:15;;;;;;;11.50;7.60;;;21.30;99.90;;;;;;5062758;28;20016;-40
2022/08/24 00:24:41;;;;;;;8.13;6.70;;;21.20;99.90;;;;;;5067060;28;20399;-37
2022/08/24 00:27:08;;;;;;;11.65;6.30;;;21.30;99.90;;;;;;5062028;28;20447;-42
2022/08/24 00:29:34;;;;;;;12.68;6.53;;;21.30;99.90;;;;;;5059614;28;20281;-37
2022/08/24 00:32:00;;;;;;;7.05;5.72;;;21.40;99.90;;;;;;5058104;28;20107;-39
2022/08/24 00:34:26;;;;;;;9.63;6.03;;;21.40;99.90;;;;;;5062802;28;20487;-33
2022/08/24 00:36:52;;;;;;;10.10;6.95;;;21.40;99.90;;;;;;5060746;28;20021;-36
2022/08/24 00:39:19;;;;;;;9.15;7.03;;;21.30;99.90;;;;;;5067150;28;20491;-39
2022/08/24 00:41:47;;;;;;;8.00;5.65;;;21.30;99.90;;;;;;5063336;28;20518;-38
2022/08/24 00:44:14;;;;;;;9.63;5.90;;;21.30;99.90;;;;;;5067304;28;20052;-42
2022/08/24 00:47:00;;;;;;;7.68;6.00;;;21.30;99.90;;;;;;5068971;28;20452;-41
2022/08/24 00:49:38;;;;;;;8.52;5.68;;;21.20;99.90;;;;;;5062223;28;20032;-37
2022/08/24 00:52:16;;;;;;;6.85;5.10;;;21.20;99.90;;;;;;5067507;28;20039;-40
2022/08/24 00:54:47;;;;;;;13.55;5.80;;;21.30;99.90;;;;;;5066704;28;20045;-38
2022/08/24 00:57:17;;;;;;;7.68;5.88;;;21.30;99.90;;;;;;5068899;28;20059;-38
2022/08/24 00:59:48;;;;;;;7.97;5.80;;;21.30;99.90;;;;;;5061772;28;20017;-38
2022/08/24 01:02:20;;;;;;;10.15;6.15;;;21.30;99.90;;;;;;5068773;28;20029;-39
2022/08/24 01:04:55;;;;;;;6.07;4.85;;;21.30;99.90;;;;;;5063708;28;20019;-44
2022/08/24 01:07:23;;;;;;;12.68;5.50;;;21.30;99.90;;;;;;5069734;28;20649;-41
2022/08/24 01:09:51;;;;;;;6.85;5.05;;;21.30;99.90;;;;;;5064394;28;20082;-41
2022/08/24 01:12:18;;;;;;;7.60;4.65;;;21.30;99.90;;;;;;5066710;28;20082;-40
2022/08/24 01:14:44;;;;;;;6.38;5.13;;;21.30;99.90;;;;;;5066182;28;20048;-40
2022/08/24 01:19:57;;;;;;;8.65;5.32;;;21.30;99.90;;;;;;5065533;28;20550;-38
2022/08/24 01:22:53;;;;;;;9.18;5.28;;;21.20;99.90;;;;;;5068701;28;20020;-36
2022/08/24 01:25:21;;;;;;;7.17;5.30;;;21.20;99.90;;;;;;5066703;28;20025;-34
2022/08/24 01:27:47;;;;;;;;;;;21.30;99.90;;;;;;5064190;28;20274;-36
2022/08/24 01:30:15;;;;;;;7.88;5.68;;;21.30;99.90;;;;;;5064875;28;20356;-37
2022/08/24 01:32:52;;;;;;;11.18;5.53;;;21.30;99.90;;;;;;5065749;28;20419;-38
2022/08/24 01:35:18;;;;;;;7.68;5.97;;;21.30;99.90;;;;;;5069386;28;20560;-31
2022/08/24 01:37:43;;;;;;;7.25;5.72;;;21.30;99.90;;;;;;5069445;28;20039;-39
2022/08/24 01:40:09;;;;;;;12.50;5.82;;;21.30;99.90;;;;;;5065828;28;20020;-31
2022/08/24 01:42:35;;;;;;;5.25;4.38;;;21.30;99.90;;;;;;5065671;28;20037;-32
2022/08/24 01:45:02;;;;;;;5.85;4.72;;;21.20;99.90;;;;;;5068155;28;20027;-37
2022/08/24 01:47:28;;;;;;;7.32;5.28;;;21.20;99.90;;;;;;5061873;28;20026;-37
2022/08/24 01:49:53;;;;;;;11.90;4.82;;;21.10;99.90;;;;;;5063220;28;20501;-35
2022/08/24 01:52:26;;;;;;;10.00;6.00;;;21.10;99.90;;;;;;5069121;28;20556;-34
2022/08/24 01:54:52;;;;;;;10.90;6.00;;;21.00;99.90;;;;;;5066630;28;20033;-37
2022/08/24 01:57:19;;;;;;;11.03;5.60;;;21.00;99.90;;;;;;5062861;28;20060;-37
2022/08/24 01:59:44;;;;;;;8.98;6.97;;;21.00;99.90;;;;;;5061816;28;20025;-39
2022/08/24 02:02:30;;;;;;;10.77;6.82;;;20.90;99.90;;;;;;5063648;28;20021;-38
2022/08/24 02:04:56;;;;;;;9.23;5.40;;;20.90;99.90;;;;;;5065225;28;20075;-38
2022/08/24 02:07:22;;;;;;;7.70;4.70;;;20.90;99.90;;;;;;5068616;28;20086;-41
2022/08/24 02:09:48;;;;;;;9.43;5.28;;;20.90;99.90;;;;;;5061044;28;20032;-38
2022/08/24 02:12:14;;;;;;;8.80;5.70;;;20.80;99.90;;;;;;5065202;28;20055;-35
2022/08/24 02:14:40;;;;;;;8.35;5.38;;;20.80;99.90;;;;;;5065110;28;20031;-33
2022/08/24 02:17:07;;;;;;;8.25;6.25;;;20.80;99.90;;;;;;5065433;28;20499;-34
2022/08/24 02:19:33;;;;;;;11.50;6.68;;;20.80;99.90;;;;;;5066119;28;20032;-35
2022/08/24 02:22:00;;;;;;;8.45;6.18;;;20.80;99.90;;;;;;5063942;28;20477;-36
2022/08/24 02:24:27;;;;;;;9.35;6.28;;;20.70;99.90;;;;;;5065962;28;20472;-38
2022/08/24 02:26:53;;;;;;;10.20;5.95;;;20.70;99.90;;;;;;5064244;28;20025;-39
2022/08/24 02:29:18;;;;;;;6.72;5.30;;;20.60;99.90;;;;;;5064247;28;20142;-36
2022/08/24 02:31:44;;;;;;;8.40;5.47;;;20.70;99.90;;;;;;5063579;28;20024;-38
2022/08/24 02:34:10;;;;;;;7.75;5.90;;;20.60;99.90;;;;;;5063199;28;20024;-38
2022/08/24 02:36:35;;;;;;;10.45;7.15;;;20.60;99.90;;;;;;5064031;28;20098;-37
2022/08/24 02:39:02;;;;;;;8.40;6.43;;;20.60;99.90;;;;;;5066165;28;20094;-36
2022/08/24 02:41:27;;;;;;;14.02;6.85;;;20.60;99.90;;;;;;5060717;28;20387;-35
2022/08/24 02:43:55;;;;;;;8.90;5.95;;;20.50;99.90;;;;;;5063695;28;20119;-38
2022/08/24 02:46:24;;;;;;;7.32;5.80;;;20.60;99.90;;;;;;5065250;28;20492;-38
2022/08/24 02:48:50;;;;;;;9.43;5.32;;;20.60;99.90;;;;;;5060282;28;20028;-37
2022/08/24 02:51:26;;;;;;;8.27;5.90;;;20.60;99.90;;;;;;5063122;28;20111;-37
2022/08/24 02:53:52;;;;;;;5.28;4.72;;;20.60;99.90;;;;;;5064001;28;20115;-43
2022/08/24 02:56:19;;;;;;;8.00;5.97;;;20.60;99.90;;;;;;5060775;28;20123;-35
2022/08/24 02:58:46;;;;;;;9.98;7.15;;;20.60;99.90;;;;;;5061003;28;20399;-43
2022/08/24 03:01:12;;;;;;;7.37;5.80;;;20.60;99.90;;;;;;5058309;28;20760;-33
2022/08/24 03:03:39;;;;;;;13.83;7.67;;;20.50;99.90;;;;;;5062000;28;20062;-35
2022/08/24 03:06:06;;;;;;;11.40;8.25;;;20.50;99.90;;;;;;5062348;28;20534;-44
2022/08/24 03:08:32;;;;;;;13.27;8.60;;;20.60;99.90;;;;;;5065101;28;20059;-36
2022/08/24 03:10:59;;;;;;;9.98;6.97;;;20.60;99.90;;;;;;5063155;28;20043;-33
2022/08/24 03:13:26;;;;;;;10.55;7.22;;;20.50;99.90;;;;;;5063479;28;20480;-36
2022/08/24 03:15:52;;;;;;;16.75;8.18;;;20.50;99.90;;;;;;5058167;28;20048;-39
2022/08/24 03:18:18;;;;;;;10.20;7.05;;;20.50;99.90;;;;;;5059432;28;20286;-33
2022/08/24 03:20:43;;;;;;;11.65;7.82;;;20.50;99.90;;;;;;5063099;28;20032;-35
2022/08/24 03:23:09;;;;;;;11.15;7.65;;;20.50;99.90;;;;;;5058897;28;20033;-35
2022/08/24 03:25:54;;;;;;;11.07;8.48;;;20.50;99.90;;;;;;5062206;28;20029;-36
2022/08/24 03:28:22;;;;;;;12.10;8.48;;;20.50;99.90;;;;;;5061321;28;20620;-36
2022/08/24 03:30:48;;;;;;;11.18;7.78;;;20.60;99.90;;;;;;5061873;28;20388;-39
2022/08/24 03:33:14;;;;;;;14.63;7.13;;;20.60;99.90;;;;;;5061153;28;20028;-34
2022/08/24 03:35:40;;;;;;;17.95;8.50;;;20.50;99.90;;;;;;5062945;28;20048;-37
2022/08/24 03:38:06;;;;;;;15.82;10.57;;;20.50;99.90;;;;;;5063634;28;20025;-33
2022/08/24 03:40:33;;;;;;;12.23;9.27;;;20.50;99.90;;;;;;5063035;28;20468;-38
2022/08/24 03:43:00;;;;;;;12.93;9.00;;;20.50;99.90;;;;;;5059858;28;20468;-38
2022/08/24 03:45:26;;;;;;;14.57;9.18;;;20.60;99.90;;;;;;5060226;28;20770;-39
2022/08/24 03:47:52;;;;;;;11.95;8.35;;;20.60;99.90;;;;;;5053472;28;20052;-36
2022/08/24 03:50:19;;;;;;;15.13;9.52;;;20.60;99.90;;;;;;5057493;28;20113;-38
2022/08/24 03:52:45;;;;;;;10.45;6.43;;;20.60;99.90;;;;;;5062891;28;20023;-44
2022/08/24 03:55:12;;;;;;;12.00;7.97;;;20.50;99.90;;;;;;5062123;28;20519;-39
2022/08/24 03:57:38;;;;;;;17.07;9.43;;;20.50;99.90;;;;;;5062448;28;20036;-39
2022/08/24 04:00:06;;;;;;;17.58;9.98;;;20.40;99.90;;;;;;5060129;28;20040;-35
2022/08/24 04:02:32;;;;;;;13.32;8.13;;;20.40;99.90;;;;;;5063784;28;20481;-37
2022/08/24 04:04:58;;;;;;;12.68;9.10;;;20.40;99.90;;;;;;5062908;28;20047;-36
2022/08/24 04:07:24;;;;;;;17.15;10.15;;;20.40;99.90;;;;;;5062201;28;20122;-40
2022/08/24 04:09:49;;;;;;;16.88;10.38;;;20.50;99.90;;;;;;5067093;28;20473;-32
2022/08/24 04:12:15;;;;;;;14.90;9.80;;;20.50;99.90;;;;;;5063481;28;20078;-38
2022/08/24 04:14:41;;;;;;;17.85;9.43;;;20.50;99.90;;;;;;5064346;28;20074;-32
2022/08/24 04:17:06;;;;;;;17.15;9.10;;;20.50;99.90;;;;;;5059233;28;20048;-42
2022/08/24 04:19:33;;;;;;;18.13;10.43;;;20.40;99.90;;;;;;5059168;28;20024;-42
2022/08/24 04:21:59;;;;;;;12.13;8.70;;;20.40;99.90;;;;;;5059699;28;20223;-35
2022/08/24 04:24:25;;;;;;;16.60;9.93;;;20.40;99.90;;;;;;5061411;28;20028;-36
2022/08/24 04:26:51;;;;;;;14.32;8.80;;;20.30;99.90;;;;;;5059586;28;20503;-38
2022/08/24 04:29:19;;;;;;;14.65;9.60;;;20.30;99.90;;;;;;5062915;28;20564;-35
2022/08/24 04:31:47;;;;;;;21.45;10.07;;;20.30;99.90;;;;;;5059284;28;20056;-33
2022/08/24 04:34:14;;;;;;;14.90;10.27;;;20.30;99.90;;;;;;5062938;28;20111;-36
2022/08/24 04:36:41;;;;;;;;;;;20.30;99.90;;;;;;5061522;28;20488;-34
2022/08/24 04:39:07;;;;;;;15.52;10.65;;;20.30;99.90;;;;;;5061703;28;20015;-38
2022/08/24 04:41:33;;;;;;;15.98;9.77;;;20.30;99.90;;;;;;5061874;28;20157;-31
2022/08/24 04:44:01;;;;;;;17.40;9.82;;;20.30;99.90;;;;;;5065039;28;20035;-37
2022/08/24 04:46:27;;;;;;;13.38;9.23;;;20.20;99.90;;;;;;5061015;28;20158;-38
2022/08/24 04:48:53;;;;;;;15.88;9.65;;;20.20;99.90;;;;;;5063843;28;20033;-38
2022/08/24 04:51:19;;;;;;;13.95;9.05;;;20.20;99.90;;;;;;5063233;28;20043;-40
2022/08/24 04:53:46;;;;;;;16.38;11.75;;;20.20;99.90;;;;;;5061913;28;20039;-39
2022/08/24 04:56:16;;;;;;;16.17;10.98;;;20.20;99.90;;;;;;5060487;28;20052;-37
2022/08/24 04:58:43;;;;;;;15.57;9.57;;;20.20;99.90;;;;;;5063473;28;20020;-33
2022/08/24 05:01:14;;;;;;;16.60;9.25;;;20.20;99.90;;;;;;5061494;28;20487;-34
2022/08/24 05:03:40;;;;;;;17.88;9.95;;;20.10;99.90;;;;;;5062054;28;20048;-39
2022/08/24 05:06:06;;;;;;;20.98;9.88;;;20.10;99.90;;;;;;5058358;28;21315;-38
2022/08/24 05:08:50;;;;;;;15.63;10.43;;;20.20;99.90;;;;;;5063844;28;20024;-35
2022/08/24 05:11:17;;;;;;;17.58;10.30;;;20.20;99.90;;;;;;5060104;28;20077;-36
2022/08/24 05:13:43;;;;;;;16.52;11.35;;;20.20;99.90;;;;;;5064096;28;20070;-32
2022/08/24 05:16:13;;;;;;;17.40;11.30;;;20.30;99.90;;;;;;5061516;28;20036;-36
2022/08/24 05:18:39;;;;;;;16.85;10.48;;;20.30;99.90;;;;;;5065012;28;20112;-36
2022/08/24 05:21:07;;;;;;;17.70;10.05;;;20.30;99.90;;;;;;5062055;28;20550;-38
2022/08/24 05:23:34;;;;;;;15.75;10.98;;;20.30;99.90;;;;;;5061024;28;20024;-38
2022/08/24 05:26:29;;;;;;;9.87;7.20;;;20.30;99.90;;;;;;5058500;28;20107;-35
2022/08/24 05:28:57;;;;;;;15.18;10.15;;;20.40;99.90;;;;;;5060949;28;20540;-37
2022/08/24 05:31:24;;;;;;;12.82;9.07;;;20.40;99.90;;;;;;5065111;28;20686;-36
2022/08/24 05:33:50;;;;;;;17.77;10.27;;;20.50;99.90;;;;;;5062710;28;20025;-35
2022/08/24 05:36:21;;;;;;;17.13;9.77;;;20.50;99.90;;;;;;5071382;28;20540;-48
2022/08/24 05:38:48;;;;;;;13.50;8.13;;;20.60;99.90;;;;;;5061579;28;20107;-31
2022/08/24 05:41:15;;;;;;;16.17;9.40;;;20.60;99.90;;;;;;5069506;28;20078;-39
2022/08/24 05:43:41;;;;;;;14.13;9.10;;;20.70;99.90;;;;;;5065337;28;20021;-35
2022/08/24 05:46:06;;;;;;;19.48;10.73;;;20.70;99.90;;;;;;5068765;28;20075;-37
2022/08/24 05:48:34;;;;;;;15.50;9.30;;;20.80;99.90;;;;;;5067125;28;20075;-39
2022/08/24 05:51:00;;;;;;;16.85;10.25;;;20.80;99.90;;;;;;5076513;28;20032;-34
2022/08/24 05:53:26;;;;;;;11.75;8.60;;;20.90;99.90;;;;;;5075563;28;20503;-34
2022/08/24 05:55:52;;;;;;;14.50;8.60;;;21.00;99.90;;;;;;5071401;28;20049;-35
2022/08/24 05:58:17;;;;;;;16.13;9.57;;;21.10;99.90;;;;;;5066016;28;20427;-35
2022/08/24 06:00:44;;;;;;;13.43;9.10;;;21.20;99.90;;;;;;5063447;28;20096;-36
2022/08/24 06:03:14;;;;;;;14.88;9.23;;;21.20;99.90;;;;;;5063024;28;20492;-32
2022/08/24 06:05:41;;;;;;;21.48;10.32;;;21.30;99.90;;;;;;5058656;28;20017;-34
2022/08/24 06:08:07;;;;;;;18.23;12.23;;;21.40;99.90;;;;;;5058584;28;20033;-34
2022/08/24 06:10:43;;;;;;;15.95;10.05;;;21.50;99.90;;;;;;5076369;28;20031;-35
2022/08/24 06:13:10;;;;;;;14.75;8.82;;;21.60;99.90;;;;;;5062357;28;20060;-33
2022/08/24 06:15:36;;;;;;;22.70;12.38;;;21.70;99.90;;;;;;5061315;28;20485;-32
2022/08/24 06:18:03;;;;;;;18.97;11.50;;;21.80;99.90;;;;;;5053898;28;20401;-32
2022/08/24 06:20:29;;;;;;;15.88;10.23;;;21.80;99.90;;;;;;5055418;28;20820;-37
2022/08/24 06:22:54;;;;;;;12.75;9.60;;;21.90;99.90;;;;;;5053735;28;20025;-33
2022/08/24 06:28:04;;;;;;;15.63;10.07;;;22.20;99.90;;;;;;5060261;28;20078;-35
2022/08/24 06:30:30;;;;;;;23.48;12.65;;;22.30;99.90;;;;;;5062516;28;20490;-40
2022/08/24 06:33:01;;;;;;;14.18;9.82;;;22.40;99.90;;;;;;5059388;28;20150;-38
2022/08/24 06:35:27;;;;;;;18.55;11.43;;;22.50;99.90;;;;;;5062956;28;20464;-42
2022/08/24 06:37:52;;;;;;;20.63;10.95;;;22.70;99.90;;;;;;5074166;28;20074;-35
2022/08/24 06:40:19;;;;;;;18.85;12.32;;;22.80;99.90;;;;;;5056391;28;20084;-38
2022/08/24 06:42:46;;;;;;;19.20;11.45;;;22.90;99.90;;;;;;5057166;28;20060;-44
2022/08/24 06:45:11;;;;;;;18.45;10.85;;;23.10;99.90;;;;;;5070496;28;20042;-38
2022/08/24 06:47:37;;;;;;;22.60;12.77;;;23.30;99.90;;;;;;5065661;28;20111;-38
2022/08/24 06:50:05;;;;;;;17.63;11.23;;;23.50;99.90;;;;;;5052906;28;20029;-41
2022/08/24 06:52:31;;;;;;;17.42;10.77;;;23.70;99.90;;;;;;5063446;28;20469;-35
2022/08/24 06:54:57;;;;;;;13.98;9.30;;;23.80;99.90;;;;;;5060908;28;20029;-36
2022/08/24 06:57:23;;;;;;;13.35;9.13;;;23.90;99.90;;;;;;5061235;28;20047;-38
2022/08/24 06:59:49;;;;;;;15.40;9.60;;;23.90;99.90;;;;;;5055845;28;20427;-40
2022/08/24 07:02:33;;;;;;;22.48;11.02;;;24.00;99.90;;;;;;5062241;28;20028;-39
2022/08/24 07:04:59;;;;;;;19.10;10.25;;;24.20;99.90;;;;;;5065793;28;20021;-42
2022/08/24 07:07:25;;;;;;;16.07;10.63;;;24.20;99.90;;;;;;5069838;28;20128;-38
2022/08/24 07:09:50;;;;;;;13.13;8.63;;;24.30;99.90;;;;;;5070544;28;20313;-39
2022/08/24 07:12:16;;;;;;;9.95;8.02;;;24.40;99.90;;;;;;5066335;28;20081;-37
2022/08/24 07:14:42;;;;;;;14.93;9.93;;;24.50;99.90;;;;;;5054279;28;20025;-38
2022/08/24 07:17:07;;;;;;;12.27;8.30;;;24.70;99.90;;;;;;5059123;28;20021;-37
2022/08/24 07:19:33;;;;;;;13.32;8.13;;;24.80;99.90;;;;;;5055409;28;20097;-38
2022/08/24 07:21:59;;;;;;;13.48;8.13;;;24.80;99.90;;;;;;5063458;28;20029;-40
2022/08/24 07:24:25;;;;;;;12.63;8.18;;;24.90;99.90;;;;;;5063869;28;20028;-42
2022/08/24 07:26:51;;;;;;;15.57;9.43;;;25.00;99.90;;;;;;5067899;28;20039;-38
2022/08/24 07:29:18;;;;;;;9.77;6.95;;;25.10;99.90;;;;;;5065391;28;20032;-38
2022/08/24 07:31:44;;;;;;;15.73;7.72;;;25.20;99.90;;;;;;5060674;28;20450;-39
2022/08/24 07:34:11;;;;;;;13.57;8.52;;;25.30;99.90;;;;;;5062475;28;20028;-41
2022/08/24 07:36:41;;;;;;;17.17;8.80;;;25.50;99.90;;;;;;5066207;28;20484;-39
2022/08/24 07:39:08;;;;;;;14.13;8.07;;;25.70;99.90;;;;;;5064222;28;20525;-38
2022/08/24 07:41:39;;;;;;;12.02;8.40;;;25.70;99.90;;;;;;5062992;28;20571;-38
2022/08/24 07:44:04;;;;;;;14.02;6.75;;;25.70;99.90;;;;;;5066373;28;20036;-42
2022/08/24 07:46:31;;;;;;;11.68;8.20;;;25.70;99.90;;;;;;5058856;28;20033;-38
2022/08/24 07:48:57;;;;;;;15.90;8.80;;;25.80;99.90;;;;;;5057315;28;20457;-37
2022/08/24 07:51:23;;;;;;;17.27;8.48;;;26.00;99.90;;;;;;5074452;28;20037;-38
2022/08/24 07:53:48;;;;;;;16.30;6.65;;;26.10;99.90;;;;;;5067788;28;20394;-37
2022/08/24 07:56:14;;;;;;;11.65;7.30;;;26.10;99.90;;;;;;5061262;28;20528;-35
2022/08/24 07:58:40;;;;;;;15.05;7.60;;;26.20;99.90;;;;;;5069374;28;20029;-41
2022/08/24 08:01:08;;;;;;;11.80;7.70;;;26.20;99.90;;;;;;5058015;28;20445;-37
2022/08/24 08:03:34;;;;;;;11.32;6.80;;;26.30;99.90;;;;;;5062763;28;20031;-37
2022/08/24 08:06:05;;;;;;;16.17;9.30;;;26.30;99.90;;;;;;5061155;28;20020;-38
2022/08/24 08:08:37;;;;;;;10.25;6.05;;;26.40;99.90;;;;;;5057070;28;20032;-38
2022/08/24 08:11:04;;;;;;;13.73;7.88;;;26.50;99.90;;;;;;5062629;28;20115;-42
2022/08/24 08:13:30;;;;;;;11.95;7.28;;;26.60;99.90;;;;;;5072980;28;20021;-40
2022/08/24 08:15:58;;;;;;;14.40;8.52;;;26.60;99.90;;;;;;5061425;28;20490;-38
2022/08/24 08:18:24;;;;;;;11.05;5.93;;;26.80;99.90;;;;;;5068110;28;20020;-38
2022/08/24 08:20:49;;;;;;;12.48;6.72;;;26.80;99.90;;;;;;5061477;28;20025;-39
2022/08/24 08:26:02;;;;;;;15.90;7.03;;;26.90;99.90;;;;;;5057768;28;20044;-38
2022/08/24 08:28:31;;;;;;;14.80;7.15;;;27.10;99.90;;;;;;5055550;28;20469;-37
2022/08/24 08:30:58;;;;;;;11.77;5.03;;;27.20;99.90;;;;;;5070194;28;20021;-41
2022/08/24 08:33:24;;;;;;;7.70;2.97;;;27.30;99.90;;;;;;5067110;28;20029;-39
2022/08/24 08:35:52;;;;;;;6.13;3.65;;;27.50;99.90;;;;;;5052908;28;20052;-41
2022/08/24 08:38:17;;;;;;;5.78;3.25;;;27.50;99.90;;;;;;5071196;28;20032;-40
2022/08/24 08:41:18;;;;;;;15.70;3.40;;;27.60;99.90;;;;;;5065259;28;20575;-38
2022/08/24 08:44:10;;;;;;;7.93;3.53;;;27.70;99.90;;;;;;5057584;28;20077;-38
2022/08/24 08:46:57;;;;;;;9.40;4.00;;;27.90;99.90;;;;;;5063692;28;20086;-39
2022/08/24 08:49:54;;;;;;;6.47;3.80;;;28.10;99.90;;;;;;5067218;28;20036;-39
2022/08/24 08:52:35;;;;;;;5.00;4.10;;;28.30;99.90;;;;;;5057482;28;20146;-41
2022/08/24 08:55:34;;;;;;;5.32;2.78;;;28.40;99.90;;;;;;5057277;28;20233;-36
2022/08/24 08:58:11;;;;;;;8.50;4.60;;;28.40;99.90;;;;;;5074392;28;20043;-31
2022/08/24 09:01:06;;;;;;;10.88;4.18;;;28.50;99.90;;;;;;5059881;28;20494;-37
2022/08/24 09:03:55;;;;;;;6.57;4.13;;;28.60;99.90;;;;;;5063620;28;20120;-31
2022/08/24 09:06:44;;;;;;;7.45;4.07;;;28.60;99.90;;;;;;5067561;28;20390;-36
2022/08/24 09:09:42;;;;;;;7.25;3.42;;;28.60;99.90;;;;;;5068899;28;20033;-33
2022/08/24 09:12:18;;;;;;;9.77;3.92;;;28.70;99.90;;;;;;5061142;28;20504;-31
2022/08/24 09:15:08;;;;;;;11.93;5.80;;;28.90;99.90;;;;;;5056159;28;20536;-31
2022/08/24 09:17:46;;;;;;;5.13;4.10;;;29.10;99.90;;;;;;5063264;28;20094;-34
2022/08/24 09:20:17;;;;;;;10.00;4.60;;;29.30;99.90;;;;;;5060710;28;20021;-35
2022/08/24 09:22:48;;;;;;;8.73;5.00;;;29.60;99.90;;;;;;5063969;28;20142;-35
2022/08/24 09:25:47;;;;;;;13.45;4.65;;;29.90;99.90;;;;;;5062371;28;20462;-33
2022/08/24 09:28:20;;;;;;;6.93;3.67;;;30.00;99.90;;;;;;5054303;28;20043;-33
2022/08/24 09:31:09;;;;;;;6.55;3.65;;;30.00;99.90;;;;;;5062112;28;20355;-34
2022/08/24 09:33:43;;;;;;;5.55;3.63;;;30.30;99.90;;;;;;5060305;28;20064;-32
2022/08/24 09:36:23;;;;;;;3.63;2.60;;;30.60;99.90;;;;;;5061078;28;20086;-31
2022/08/24 09:38:57;;;;;;;6.35;2.97;;;30.70;99.90;;;;;;5060431;28;20036;-37
2022/08/24 09:41:50;;;;;;;3.78;2.88;;;30.70;99.90;;;;;;5067700;28;20360;-35
2022/08/24 09:44:45;;;;;;;2.85;2.55;;;30.70;99.90;;;;;;5063357;28;20029;-37
2022/08/24 09:47:28;;;;;;;3.78;2.90;;;30.90;99.90;;;;;;5045391;28;20333;-33
2022/08/24 09:50:28;;;;;;;7.25;2.47;;;31.00;99.90;;;;;;5065077;28;20082;-35
2022/08/24 09:53:02;;;;;;;3.10;1.90;;;31.30;99.70;;;;;;5061639;28;20029;-31
2022/08/24 09:55:55;;;;;;;6.20;3.00;;;31.50;99.40;;;;;;5066569;28;20040;-40
2022/08/24 09:58:33;;;;;;;2.88;1.50;;;31.70;99.00;;;;;;5069558;28;20036;-35
2022/08/24 10:01:19;;;;;;;1.45;1.35;;;32.10;98.00;;;;;;5066966;28;20092;-40
2022/08/24 10:04:21;;;;;;;1.85;1.70;;;32.30;97.70;;;;;;5062912;28;20481;-33
2022/08/24 10:07:14;;;;;;;1.98;1.50;;;32.50;97.40;;;;;;5055449;28;20060;-35
2022/08/24 10:09:54;;;;;;;1.63;1.52;;;32.20;97.30;;;;;;5059722;28;20066;-33
2022/08/24 10:12:58;;;;;;;1.73;1.60;;;32.00;97.70;;;;;;5069976;28;20497;-34
2022/08/24 10:15:41;;;;;;;1.35;1.25;;;31.90;97.80;;;;;;5065557;28;20130;-36
2022/08/24 10:18:12;;;;;;;1.83;1.23;;;31.90;97.50;;;;;;5058288;28;20033;-35
2022/08/24 10:21:07;;;;;;;1.30;1.20;;;31.90;97.40;;;;;;5059319;28;20149;-40
2022/08/24 10:23:48;;;;;;;1.15;1.02;;;32.10;97.30;;;;;;5050567;28;20037;-46
2022/08/24 10:26:24;;;;;;;3.35;1.65;;;32.30;96.90;;;;;;5066602;28;20036;-43
2022/08/24 10:29:27;;;;;;;1.48;0.95;;;32.30;96.70;;;;;;5052727;28;20021;-39
2022/08/24 10:32:04;;;;;;;1.25;1.15;;;32.40;97.00;;;;;;5066576;28;20550;-41
2022/08/24 10:34:59;;;;;;;3.33;1.88;;;32.70;96.30;;;;;;5067072;28;20427;-42
2022/08/24 10:37:37;;;;;;;1.53;1.20;;;32.70;96.10;;;;;;5063964;28;20438;-41
2022/08/24 10:40:11;;;;;;;1.30;1.20;;;32.70;96.00;;;;;;5070003;28;20855;-38
2022/08/24 10:45:55;;;;;;;2.75;1.20;;;32.80;95.50;;;;;;5058538;28;20467;-40
2022/08/24 10:48:40;;;;;;;2.50;1.70;;;32.80;95.80;;;;;;5060937;28;20145;-36
2022/08/24 10:51:24;;;;;;;5.67;1.33;;;32.60;96.30;;;;;;5056225;28;20064;-39
2022/08/24 10:53:52;;;;;;;4.40;1.08;;;32.30;95.90;;;;;;5061645;28;20025;-40
2022/08/24 10:56:25;;;;;;;1.75;1.33;;;32.00;96.30;;;;;;5061855;28;20056;-39
2022/08/24 10:59:16;;;;;;;1.13;1.10;;;31.80;96.30;;;;;;5068753;28;20547;-41
2022/08/24 11:02:11;;;;;;;1.63;1.40;;;31.50;96.70;;;;;;5060140;28;20464;-41
2022/08/24 11:04:38;;;;;;;2.08;1.40;;;31.10;97.10;;;;;;5059374;28;20136;-41
2022/08/24 11:07:13;;;;;;;1.17;0.80;;;30.80;97.30;;;;;;5064171;28;20473;-45
2022/08/24 11:09:47;;;;;;;5.45;1.95;;;30.50;97.80;;;;;;5057643;28;20036;-42
2022/08/24 11:12:25;;;;;;;5.60;1.55;;;30.40;97.90;;;;;;5077295;28;20044;-43
2022/08/24 11:14:51;;;;;;;3.08;1.60;;;30.10;98.10;;;;;;5067363;28;20484;-46
2022/08/24 11:17:20;;;;;;;2.75;1.70;;;29.90;98.60;;;;;;5058703;28;20033;-39
2022/08/24 11:19:46;;;;;;;4.43;1.25;;;29.80;98.40;;;;;;5051849;28;20029;-37
2022/08/24 11:22:36;;;;;;;0.98;0.98;;;29.70;98.70;;;;;;5063262;28;20017;-38
2022/08/24 11:25:14;;;;;;;3.85;2.00;;;29.40;98.80;;;;;;5066402;28;20106;-40
2022/08/24 11:27:45;;;;;;;1.17;1.10;;;29.30;99.10;;;;;;5069035;28;20526;-41
2022/08/24 11:30:18;;;;;;;10.98;2.38;;;29.30;99.30;;;;;;5057565;28;20468;-40
2022/08/24 11:32:46;;;;;;;1.52;1.42;;;29.40;99.10;;;;;;5058465;28;20499;-39
2022/08/24 11:35:33;;;;;;;1.15;1.15;;;29.70;99.00;;;;;;5057493;28;20025;-39
2022/08/24 11:38:17;;;;;;;2.33;1.48;;;30.20;98.90;;;;;;5062284;28;20036;-32
2022/08/24 11:40:58;;;;;;;1.85;1.20;;;30.70;98.50;;;;;;5051738;28;20024;-38
2022/08/24 11:43:40;;;;;;;1.15;1.05;;;31.00;98.10;;;;;;5052956;28;20084;-32
2022/08/24 11:46:16;;;;;;;2.28;1.20;;;30.90;98.00;;;;;;5056985;28;20104;-31
2022/08/24 11:48:59;;;;;;;1.30;0.82;;;30.70;97.80;;;;;;5061517;28;20062;-34
2022/08/24 11:51:34;;;;;;;4.32;1.02;;;30.40;98.50;;;;;;5063462;28;20085;-32
2022/08/24 11:54:10;;;;;;;2.40;1.02;;;30.20;97.20;;;;;;5060521;28;20465;-36
2022/08/24 11:57:08;;;;;;;1.00;0.80;;;30.00;97.70;;;;;;5056243;28;20543;-35
2022/08/24 11:59:48;;;;;;;3.00;1.33;;;29.70;97.70;;;;;;5052564;28;20090;-34
2022/08/24 12:02:31;;;;;;;0.90;0.82;;;29.80;97.50;;;;;;5053542;28;20438;-35
2022/08/24 12:05:05;;;;;;;0.80;0.80;;;29.90;97.30;;;;;;5062946;28;20032;-33
2022/08/24 12:07:49;;;;;;;8.90;0.75;;;30.00;97.10;;;;;;5060806;28;20021;-31
2022/08/24 12:10:36;;;;;;;2.30;0.73;;;30.00;97.10;;;;;;5061407;28;20464;-34
2022/08/24 12:13:27;;;;;;;0.90;0.90;;;30.30;97.10;;;;;;5071631;28;20396;-32
2022/08/24 12:16:11;;;;;;;0.70;0.70;;;30.80;96.40;;;;;;5062562;28;20021;-35
2022/08/24 12:19:15;;;;;;;0.88;0.77;;;31.30;96.30;;;;;;5057739;28;20021;-35
2022/08/24 12:21:44;;;;;;;2.55;0.80;;;31.70;95.50;;;;;;5059135;28;20033;-33
2022/08/24 12:24:20;;;;;;;1.95;0.90;;;32.00;95.70;;;;;;5066758;28;20042;-34
2022/08/24 12:26:50;;;;;;;0.50;0.50;;;32.10;94.90;;;;;;5054081;28;20700;-36
2022/08/24 12:29:37;;;;;;;1.25;0.73;;;32.10;95.00;;;;;;5058234;28;20419;-34
2022/08/24 12:32:23;;;;;;;1.52;0.77;;;31.90;94.50;;;;;;5053609;28;20023;-34
2022/08/24 12:35:17;;;;;;;0.73;0.60;;;31.70;95.10;;;;;;5059071;28;20389;-37
2022/08/24 12:37:54;;;;;;;1.27;1.10;;;31.40;95.10;;;;;;5052306;28;20036;-35
2022/08/24 12:40:34;;;;;;;3.95;0.90;;;31.20;95.40;;;;;;5055461;28;20092;-32
2022/08/24 12:43:05;;;;;;;0.77;0.65;;;31.10;95.30;;;;;;5062987;28;20052;-35
2022/08/24 12:45:31;;;;;;;0.73;0.70;;;30.90;95.70;;;;;;5069256;28;20491;-35
2022/08/24 12:47:56;;;;;;;1.30;1.30;;;30.80;96.00;;;;;;5070976;28;20603;-41
2022/08/24 12:51:13;;;;;;;0.47;0.47;;;31.00;96.10;;;;;;5081428;28;20100;-38
2022/08/24 12:54:18;;;;;;;0.70;0.70;;;31.50;95.50;;;;;;5060369;28;20081;-40
2022/08/24 12:57:10;;;;;;;1.67;0.60;;;31.90;95.10;;;;;;5058259;28;20045;-42
2022/08/24 12:59:43;;;;;;;0.50;0.50;;;31.90;94.90;;;;;;5071577;28;20500;-39
2022/08/24 13:02:18;;;;;;;0.98;0.68;;;31.70;94.50;;;;;;5073192;28;20123;-42
2022/08/24 13:04:58;;;;;;;2.40;0.93;;;31.60;95.30;;;;;;5065609;28;20528;-40
2022/08/24 13:07:23;;;;;;;0.82;0.77;;;31.60;95.50;;;;;;5060780;28;20484;-42
2022/08/24 13:09:52;;;;;;;6.28;1.15;;;31.60;95.80;;;;;;5068354;28;20088;-42
2022/08/24 13:12:36;;;;;;;1.05;0.82;;;31.60;95.90;;;;;;5068518;28;20041;-41
2022/08/24 13:15:29;;;;;;;0.90;0.90;;;31.50;96.00;;;;;;5071287;28;20028;-39
2022/08/24 13:18:15;;;;;;;0.70;0.70;;;31.30;96.30;;;;;;5071406;28;20447;-39